KSLG/SLG METAR and TAF weather

Enter ICAO airport designator
Station Type Date Time Source
KSLG METAR 2020/01/22 20:56 UTC NOAA

KSLG 222056Z AUTO 17009KT 10SM UP OVC010 01/00 A3000 RMK AO2 RAE43UPB05E15B43 CIG 008V013 SLP169 P0000 60002 T00110000 56018 FZRANO TSNO


Station Type Date Time Source
KSLG Decoded METAR 2020/01/22 20:56 UTC NOAA

Siloam Springs, Smith Field Airport, AR, United States (KSLG) 36-12N 094-29W
Jan 22, 2020 - 03:56 PM EST / 2020.01.22 2056 UTC
Wind: from the S (170 degrees) at 10 MPH (9 KT):0
Visibility: 10 mile(s):0
Sky conditions: overcast
Weather: precipitation
Precipitation last hour: A trace
Temperature: 34.0 F (1.1 C)
Windchill: 26 F (-3 C):1
Dew Point: 32.0 F (0.0 C)
Relative Humidity: 92%
Pressure (altimeter): 30 in. Hg (1015 hPa)
Pressure tendency: 0.05 inches (1.8 hPa) lower than three hours ago
ob: KSLG 222056Z AUTO 17009KT 10SM UP OVC010 01/00 A3000 RMK AO2 RAE43UPB05E15B43 CIG 008V013 SLP169 P0000 60002 T00110000 56018 FZRANO TSNO
cycle: 21

Station Type Date Time Source
KSLG TAF UTC NOAA

Error!

Example: see airport list